createdAt,value
2019-02-25T00:02:46.713Z,12.43
2019-02-25T00:06:51.049Z,12.83
2019-02-25T00:10:55.285Z,11.63
2019-02-25T00:14:59.614Z,12.00
2019-02-25T00:19:04.190Z,12.57
2019-02-25T00:23:08.480Z,11.67
2019-02-25T00:27:12.763Z,12.00
2019-02-25T00:31:17.256Z,11.77
2019-02-25T00:35:21.508Z,11.37
2019-02-25T00:39:25.828Z,11.37
2019-02-25T00:43:30.149Z,11.13
2019-02-25T00:47:34.526Z,11.27
2019-02-25T00:51:38.892Z,11.30
2019-02-25T00:55:43.212Z,10.60
2019-02-25T00:59:47.541Z,10.23
2019-02-25T01:03:51.879Z,10.63
2019-02-25T01:07:56.127Z,11.20
2019-02-25T01:12:00.499Z,11.13
2019-02-25T01:16:04.788Z,11.77
2019-02-25T01:20:09.351Z,11.97
2019-02-25T01:24:13.666Z,11.00
2019-02-25T01:28:17.987Z,13.33
2019-02-25T01:32:22.254Z,12.67
2019-02-25T01:36:26.668Z,13.13
2019-02-25T01:40:30.983Z,11.73
2019-02-25T01:44:35.356Z,10.20
2019-02-25T01:48:39.729Z,11.97
2019-02-25T01:52:43.922Z,11.87
2019-02-25T01:56:48.231Z,13.23
2019-02-25T02:00:52.493Z,13.10
2019-02-25T02:04:56.862Z,12.70
2019-02-25T02:09:01.209Z,11.10
2019-02-25T02:13:13.955Z,10.80
2019-02-25T02:17:11.495Z,11.20
2019-02-25T02:21:15.861Z,11.73
2019-02-25T02:25:20.241Z,11.97
2019-02-25T02:29:24.633Z,13.17
2019-02-25T02:33:28.942Z,12.43
2019-02-25T02:37:33.347Z,13.50
2019-02-25T02:42:12.874Z,13.20
2019-02-25T02:46:45.123Z,13.00
2019-02-25T02:50:49.508Z,12.70
2019-02-25T02:54:53.873Z,12.67
2019-02-25T02:58:58.152Z,13.93
2019-02-25T03:03:02.453Z,12.00
2019-02-25T03:07:06.837Z,13.43
2019-02-25T03:11:11.200Z,13.67
2019-02-25T03:15:17.228Z,13.70
2019-02-25T03:19:21.682Z,12.93
2019-02-25T03:23:26.059Z,13.10
2019-02-25T03:27:30.284Z,13.03
2019-02-25T03:31:34.657Z,12.67
2019-02-25T03:35:39.021Z,13.40
2019-02-25T03:39:43.417Z,13.73
2019-02-25T03:43:47.726Z,12.00
2019-02-25T03:47:52.082Z,11.63
2019-02-25T03:51:56.319Z,12.77
2019-02-25T03:56:00.571Z,13.03
2019-02-25T04:00:05.539Z,12.70
2019-02-25T04:04:09.855Z,13.40
2019-02-25T04:08:14.194Z,12.87
2019-02-25T04:12:18.518Z,13.47
2019-02-25T04:16:22.876Z,13.07
2019-02-25T04:20:27.218Z,12.53
2019-02-25T04:24:31.615Z,12.97
2019-02-25T04:28:35.899Z,13.63
2019-02-25T04:32:40.344Z,13.63
2019-02-25T04:36:44.726Z,13.90
2019-02-25T04:40:49.118Z,13.37
2019-02-25T04:44:53.519Z,14.90
2019-02-25T04:48:57.859Z,14.50
2019-02-25T04:53:02.197Z,14.80
2019-02-25T04:57:06.522Z,13.67
2019-02-25T05:01:10.870Z,13.57
2019-02-25T05:05:15.170Z,13.67
2019-02-25T05:09:19.487Z,13.00
2019-02-25T05:13:23.843Z,13.27
2019-02-25T05:17:28.191Z,12.87
2019-02-25T05:21:32.487Z,12.87
2019-02-25T05:25:36.739Z,12.70
2019-02-25T05:29:41.094Z,12.33
2019-02-25T05:33:45.371Z,13.00
2019-02-25T05:37:49.654Z,12.70
2019-02-25T05:41:54.065Z,11.03
2019-02-25T05:45:58.339Z,10.13
2019-02-25T05:50:02.703Z,10.30
2019-02-25T05:54:07.042Z,9.90
2019-02-25T05:58:11.409Z,10.50
2019-02-25T06:02:15.751Z,9.97
2019-02-25T06:06:20.140Z,10.37
2019-02-25T06:10:24.576Z,11.53
2019-02-25T06:14:29.236Z,12.33
2019-02-25T06:18:33.898Z,10.47
2019-02-25T06:22:38.565Z,11.50
2019-02-25T06:26:43.153Z,11.33
2019-02-25T06:30:47.722Z,11.20
2019-02-25T06:34:52.044Z,11.67
2019-02-25T06:38:56.422Z,12.80
2019-02-25T06:43:00.778Z,12.13
2019-02-25T06:47:05.267Z,11.57
2019-02-25T06:51:09.630Z,11.80
2019-02-25T06:55:15.205Z,11.03
2019-02-25T06:59:19.723Z,12.27
2019-02-25T07:03:24.130Z,12.37
2019-02-25T07:07:46.188Z,11.27
2019-02-25T07:12:02.158Z,11.80
2019-02-25T07:16:37.506Z,11.50
2019-02-25T07:21:19.200Z,11.70
2019-02-25T07:25:39.271Z,13.60
2019-02-25T07:29:57.399Z,11.27
2019-02-25T07:34:20.775Z,11.83
2019-02-25T07:38:44.104Z,11.67
2019-02-25T07:42:59.398Z,11.90
2019-02-25T07:47:14.245Z,11.90
2019-02-25T07:51:37.745Z,11.63
2019-02-25T07:56:02.772Z,11.57
2019-02-25T08:00:26.376Z,11.67
2019-02-25T08:04:47.643Z,11.80
2019-02-25T08:09:09.551Z,12.60
2019-02-25T08:13:29.470Z,12.70
2019-02-25T08:18:01.820Z,11.80
2019-02-25T08:22:32.531Z,11.17
2019-02-25T08:26:55.930Z,11.80
2019-02-25T08:31:22.119Z,10.90
2019-02-25T08:36:37.629Z,11.13
2019-02-25T08:41:38.568Z,11.10
2019-02-25T08:45:52.832Z,10.53
2019-02-25T08:49:59.773Z,10.10
2019-02-25T08:54:04.217Z,9.20
2019-02-25T08:58:08.802Z,9.73
2019-02-25T09:02:13.445Z,9.53
2019-02-25T09:06:17.924Z,9.70
2019-02-25T09:10:22.386Z,9.60
2019-02-25T09:14:26.923Z,9.50
2019-02-25T09:18:31.395Z,9.07
2019-02-25T09:22:35.799Z,9.37
2019-02-25T09:26:40.316Z,9.10
2019-02-25T09:30:44.814Z,9.43
2019-02-25T09:34:49.277Z,9.27
2019-02-25T09:38:53.748Z,9.67
2019-02-25T09:42:58.286Z,9.87
2019-02-25T09:47:02.870Z,9.90
2019-02-25T09:51:07.363Z,10.43
2019-02-25T09:55:12.276Z,10.57
2019-02-25T09:59:16.757Z,10.53
2019-02-25T10:03:21.209Z,9.47
2019-02-25T10:07:25.789Z,10.40
2019-02-25T10:11:30.281Z,10.20
2019-02-25T10:15:34.165Z,10.33
2019-02-25T10:19:38.679Z,10.67
2019-02-25T10:23:43.221Z,10.10
2019-02-25T10:27:49.539Z,9.33
2019-02-25T10:31:53.871Z,9.50
2019-02-25T10:35:58.270Z,10.80
2019-02-25T10:40:02.841Z,11.57
2019-02-25T10:44:08.490Z,9.50
2019-02-25T10:48:15.082Z,9.60
2019-02-25T10:52:19.484Z,10.70
2019-02-25T10:56:37.507Z,10.83
2019-02-25T11:00:43.653Z,11.30
2019-02-25T11:04:49.362Z,10.30
2019-02-25T11:09:00.832Z,10.33
2019-02-25T11:13:05.888Z,10.87
2019-02-25T11:17:10.316Z,10.93
2019-02-25T11:21:14.669Z,11.10
2019-02-25T11:25:19.797Z,11.17
2019-02-25T11:29:25.405Z,10.77
2019-02-25T11:33:32.030Z,11.90
2019-02-25T11:37:35.945Z,12.17
2019-02-25T11:41:41.092Z,10.63
2019-02-25T11:45:45.843Z,11.90
2019-02-25T11:49:50.897Z,11.20
2019-02-25T11:53:55.490Z,11.33
2019-02-25T11:57:59.927Z,11.00
2019-02-25T12:02:04.389Z,11.47
2019-02-25T12:06:08.834Z,11.33
2019-02-25T12:10:13.471Z,11.63
2019-02-25T12:14:18.032Z,11.70
2019-02-25T12:18:22.739Z,11.27
2019-02-25T12:22:27.221Z,11.70
2019-02-25T12:26:31.637Z,11.67
2019-02-25T12:30:38.281Z,11.37
2019-02-25T12:34:42.764Z,11.20
2019-02-25T12:38:47.271Z,11.63
2019-02-25T12:42:53.025Z,11.43
2019-02-25T12:46:57.526Z,19.67
2019-02-25T12:51:01.989Z,11.93
2019-02-25T12:55:07.554Z,11.97
2019-02-25T12:59:11.964Z,11.77
2019-02-25T13:03:16.463Z,12.53
2019-02-25T13:07:20.218Z,11.83
2019-02-25T13:11:24.734Z,12.20
2019-02-25T13:15:29.247Z,12.10
2019-02-25T13:19:33.814Z,13.13
2019-02-25T13:23:38.518Z,13.97
2019-02-25T13:27:43.726Z,13.47
2019-02-25T13:31:50.038Z,13.07
2019-02-25T13:35:54.636Z,13.93
2019-02-25T13:39:59.197Z,14.30
2019-02-25T13:44:03.860Z,14.00
2019-02-25T13:48:08.371Z,14.00
2019-02-25T13:52:12.804Z,12.83
2019-02-25T13:56:17.266Z,14.07
2019-02-25T14:00:21.849Z,14.33
2019-02-25T14:04:26.327Z,13.73
2019-02-25T14:08:30.933Z,13.60
2019-02-25T14:12:35.352Z,13.60
2019-02-25T14:16:39.728Z,12.83
2019-02-25T14:21:03.292Z,11.40
2019-02-25T14:25:27.808Z,9.70
2019-02-25T14:29:51.518Z,9.70
2019-02-25T14:33:55.948Z,10.77
2019-02-25T14:38:05.191Z,10.30
2019-02-25T14:42:09.374Z,10.27
2019-02-25T14:46:16.576Z,11.27
2019-02-25T14:50:23.696Z,29.37
2019-02-25T14:54:32.273Z,21.37
2019-02-25T14:58:37.871Z,17.37
2019-02-25T15:02:43.637Z,13.63
2019-02-25T15:06:49.164Z,14.47
2019-02-25T15:10:55.555Z,15.07
2019-02-25T15:15:02.182Z,14.43
2019-02-25T15:19:06.315Z,14.00
2019-02-25T15:23:14.594Z,17.30
2019-02-25T15:27:16.940Z,14.43
2019-02-25T15:31:21.786Z,13.50
2019-02-25T15:35:29.177Z,13.27
2019-02-25T15:39:32.447Z,14.27
2019-02-25T15:43:36.906Z,14.70
2019-02-25T15:47:42.472Z,13.43
2019-02-25T15:51:47.664Z,15.27
2019-02-25T15:55:52.269Z,14.23
2019-02-25T15:59:56.770Z,13.83
2019-02-25T16:04:02.922Z,13.00
2019-02-25T16:08:28.422Z,12.27
2019-02-25T16:12:33.678Z,11.80
2019-02-25T16:16:39.355Z,12.43
2019-02-25T16:20:46.280Z,12.60
2019-02-25T16:24:49.789Z,12.50
2019-02-25T16:28:55.192Z,12.60
2019-02-25T16:33:02.913Z,13.17
2019-02-25T16:37:07.450Z,14.03
2019-02-25T16:41:12.120Z,13.50
2019-02-25T16:45:22.741Z,14.73
2019-02-25T16:49:27.917Z,13.67
2019-02-25T16:53:36.919Z,14.53
2019-02-25T16:57:41.279Z,13.73
2019-02-25T17:01:45.863Z,14.43
2019-02-25T17:05:50.490Z,14.60
2019-02-25T17:09:55.407Z,16.20
2019-02-25T17:14:01.947Z,13.37
2019-02-25T17:18:07.281Z,14.13
2019-02-25T17:22:11.671Z,14.33
2019-02-25T17:26:19.539Z,13.97
2019-02-25T17:30:24.762Z,15.50
2019-02-25T17:34:29.237Z,15.83
2019-02-25T17:38:35.511Z,14.07
2019-02-25T17:42:40.221Z,14.73
2019-02-25T17:46:44.623Z,15.00
2019-02-25T17:50:49.139Z,14.43
2019-02-25T17:54:53.629Z,13.30
2019-02-25T17:58:59.373Z,14.40
2019-02-25T18:03:04.969Z,13.80
2019-02-25T18:07:09.425Z,14.20
2019-02-25T18:11:15.606Z,13.90
2019-02-25T18:15:21.992Z,13.90
2019-02-25T18:19:27.162Z,13.00
2019-02-25T18:23:31.682Z,13.20
2019-02-25T18:27:37.405Z,13.53
2019-02-25T18:31:42.046Z,14.30
2019-02-25T18:35:46.310Z,16.90
2019-02-25T18:39:52.309Z,13.93
2019-02-25T18:43:56.851Z,13.03
2019-02-25T18:48:01.364Z,13.37
2019-02-25T18:52:05.738Z,12.90
2019-02-25T18:57:03.197Z,12.43
2019-02-25T19:01:09.702Z,14.37
2019-02-25T19:05:14.142Z,15.03
2019-02-25T19:09:22.741Z,15.63
2019-02-25T19:13:27.684Z,14.37
2019-02-25T19:17:32.862Z,14.67
2019-02-25T19:21:37.322Z,14.93
2019-02-25T19:25:41.694Z,14.30
2019-02-25T19:29:49.081Z,13.57
2019-02-25T19:33:52.466Z,14.87
2019-02-25T19:37:56.904Z,12.87
2019-02-25T19:42:01.270Z,13.97
2019-02-25T19:46:06.397Z,12.97
2019-02-25T19:50:12.706Z,14.90
2019-02-25T19:54:18.656Z,15.77
2019-02-25T19:58:24.234Z,14.43
2019-02-25T20:02:29.783Z,13.60
2019-02-25T20:06:34.911Z,12.10
2019-02-25T20:10:39.371Z,13.37
2019-02-25T20:14:46.558Z,15.37
2019-02-25T20:18:49.844Z,15.20
2019-02-25T20:22:54.211Z,14.17
2019-02-25T20:27:00.661Z,16.23
2019-02-25T20:31:05.812Z,13.97
2019-02-25T20:35:13.946Z,13.17
2019-02-25T20:39:18.576Z,14.03
2019-02-25T20:43:23.687Z,13.47
2019-02-25T20:47:28.988Z,13.50
2019-02-25T20:51:33.783Z,13.87
2019-02-25T20:55:39.443Z,13.30
2019-02-25T20:59:46.604Z,12.83
2019-02-25T21:03:52.737Z,13.27
2019-02-25T21:07:59.860Z,13.20
2019-02-25T21:12:04.200Z,12.30
2019-02-25T21:16:10.610Z,12.67
2019-02-25T21:20:15.748Z,13.43
2019-02-25T21:24:20.727Z,13.27
2019-02-25T21:28:29.042Z,12.77
2019-02-25T21:32:32.586Z,11.20
2019-02-25T21:36:38.156Z,11.23
2019-02-25T21:40:46.242Z,12.30
2019-02-25T21:44:54.762Z,11.07
2019-02-25T21:49:02.253Z,11.50
2019-02-25T21:53:09.380Z,12.67
2019-02-25T21:57:33.796Z,12.07
2019-02-25T22:01:41.120Z,11.57
2019-02-25T22:05:49.369Z,12.90
2019-02-25T22:09:53.280Z,13.00
2019-02-25T22:13:58.226Z,11.97
2019-02-25T22:18:03.941Z,13.17
2019-02-25T22:22:09.074Z,12.80
2019-02-25T22:26:14.116Z,12.93
2019-02-25T22:30:20.202Z,12.60
2019-02-25T22:34:26.233Z,13.10
2019-02-25T22:38:31.471Z,12.80
2019-02-25T22:42:36.309Z,12.70
2019-02-25T22:46:43.434Z,12.20
2019-02-25T22:50:51.228Z,12.73
2019-02-25T22:54:55.907Z,13.80
2019-02-25T22:59:02.794Z,13.03
2019-02-25T23:03:11.038Z,14.13
2019-02-25T23:07:17.546Z,16.80
2019-02-25T23:11:23.756Z,15.30
2019-02-25T23:15:30.355Z,15.87
2019-02-25T23:19:36.581Z,16.87
2019-02-25T23:23:41.637Z,17.07
2019-02-25T23:27:46.120Z,15.93
2019-02-25T23:31:51.402Z,17.70
2019-02-25T23:35:56.089Z,15.27
2019-02-25T23:40:07.258Z,16.53
2019-02-25T23:44:11.139Z,15.93
2019-02-25T23:48:16.881Z,15.47
2019-02-25T23:52:25.657Z,16.00
2019-02-25T23:56:30.064Z,16.37
